Time;durP1;ratioP1;P1;durP2;ratioP2;P2;SDS_P1;SDS_P2;PMS_P1;PMS_P2;Temp;Humidity;BMP_temperature;BMP_pressure;BME280_temperature;BME280_humidity;BME280_pressure;Samples;Min_cycle;Max_cycle;Signal;HPM_P1;HPM_P2
2023/07/26 00:02:18;;;;;;;5.13;1.70;;;;;;;;;;5002797;28;20205;-67
2023/07/26 00:04:46;;;;;;;4.25;1.60;;;;;;;;;;4999917;28;20216;-66
2023/07/26 00:07:15;;;;;;;2.33;1.50;;;;;;;;;;5000247;28;20198;-66
2023/07/26 00:09:42;;;;;;;4.03;1.50;;;;;;;;;;5001443;28;20213;-66
2023/07/26 00:12:10;;;;;;;2.45;1.50;;;;;;;;;;4999383;28;20201;-66
2023/07/26 00:14:38;;;;;;;2.10;1.60;;;;;;;;;;5000201;28;20232;-66
2023/07/26 00:17:09;;;;;;;2.58;1.40;;;;;;;;;;4982904;28;20204;-66
2023/07/26 00:19:37;;;;;;;2.72;1.40;;;;;;;;;;5001449;28;20205;-66
2023/07/26 00:22:06;;;;;;;2.15;1.40;;;;;;;;;;5000580;28;20201;-66
2023/07/26 00:24:36;;;;;;;2.00;1.58;;;;;;;;;;5002152;28;20204;-65
2023/07/26 00:27:04;;;;;;;2.35;1.40;;;;;;;;;;5003928;28;20208;-66
2023/07/26 00:29:33;;;;;;;4.50;1.70;;;;;;;;;;5005803;28;20212;-66
2023/07/26 00:32:01;;;;;;;1.70;1.60;;;;;;;;;;4989540;28;20211;-66
2023/07/26 00:34:36;;;;;;;4.57;1.83;;;;;;;;;;4999946;28;20232;-66
2023/07/26 00:37:05;;;;;;;2.03;1.70;;;;;;;;;;4999933;28;20205;-67
2023/07/26 00:39:35;;;;;;;2.05;1.73;;;;;;;;;;5003804;28;20271;-66
2023/07/26 00:42:04;;;;;;;2.75;1.65;;;;;;;;;;4999716;28;20197;-66
2023/07/26 00:44:34;;;;;;;2.05;1.60;;;;;;;;;;5000694;28;20213;-66
2023/07/26 00:47:04;;;;;;;4.40;1.73;;;;;;;;;;5002494;28;20247;-67
2023/07/26 00:49:32;;;;;;;1.70;1.60;;;;;;;;;;4996782;28;20215;-66
2023/07/26 00:52:01;;;;;;;3.05;1.90;;;;;;;;;;4986032;28;20197;-66
2023/07/26 00:54:30;;;;;;;4.00;1.92;;;;;;;;;;4999161;28;20268;-66
2023/07/26 00:57:00;;;;;;;2.17;1.60;;;;;;;;;;4999689;28;20228;-65
2023/07/26 00:59:31;;;;;;;3.17;1.80;;;;;;;;;;4998921;28;20223;-66
2023/07/26 01:01:59;;;;;;;3.67;1.70;;;;;;;;;;5000644;28;20221;-66
2023/07/26 01:04:27;;;;;;;2.15;1.80;;;;;;;;;;5002932;28;20202;-66
2023/07/26 01:07:01;;;;;;;3.13;1.80;;;;;;;;;;5001474;28;20208;-66
2023/07/26 01:09:33;;;;;;;2.90;1.70;;;;;;;;;;4999296;28;20204;-66
2023/07/26 01:12:04;;;;;;;2.47;1.83;;;;;;;;;;5000130;28;20226;-66
2023/07/26 01:14:37;;;;;;;1.85;1.75;;;;;;;;;;5003938;28;20239;-66
2023/07/26 01:17:05;;;;;;;3.80;2.10;;;;;;;;;;4998273;28;20201;-66
2023/07/26 01:19:33;;;;;;;2.55;1.70;;;;;;;;;;5003090;28;20259;-66
2023/07/26 01:22:04;;;;;;;2.10;1.73;;;;;;;;;;4999873;28;20328;-66
2023/07/26 01:24:32;;;;;;;2.95;1.80;;;;;;;;;;4980634;28;20202;-66
2023/07/26 01:27:02;;;;;;;3.10;1.97;;;;;;;;;;5001323;28;20284;-66
2023/07/26 01:29:29;;;;;;;2.43;1.50;;;;;;;;;;4983622;28;20205;-65
2023/07/26 01:31:57;;;;;;;2.50;1.90;;;;;;;;;;4999676;28;20213;-66
2023/07/26 01:34:24;;;;;;;2.10;1.90;;;;;;;;;;5000189;28;20240;-66
2023/07/26 01:36:52;;;;;;;2.08;1.80;;;;;;;;;;4981400;28;20197;-66
2023/07/26 01:39:22;;;;;;;2.07;1.97;;;;;;;;;;5000159;28;20215;-66
2023/07/26 01:41:50;;;;;;;2.13;1.80;;;;;;;;;;5001202;28;20209;-66
2023/07/26 01:44:21;;;;;;;5.53;2.20;;;;;;;;;;4999624;28;20201;-66
2023/07/26 01:46:52;;;;;;;2.95;1.88;;;;;;;;;;4999745;28;20259;-66
2023/07/26 01:49:24;;;;;;;2.90;2.23;;;;;;;;;;4998323;28;20232;-65
2023/07/26 01:51:51;;;;;;;2.83;2.37;;;;;;;;;;5000598;28;20236;-66
2023/07/26 01:54:19;;;;;;;1.70;1.60;;;;;;;;;;5004619;28;20225;-66
2023/07/26 01:56:50;;;;;;;3.77;2.00;;;;;;;;;;5002548;28;20208;-66
2023/07/26 01:59:18;;;;;;;3.90;1.97;;;;;;;;;;4985891;28;20197;-66
2023/07/26 02:01:46;;;;;;;2.57;1.60;;;;;;;;;;4985133;28;20208;-66
2023/07/26 02:04:14;;;;;;;2.67;1.70;;;;;;;;;;4983462;28;20204;-66
2023/07/26 02:06:41;;;;;;;2.00;1.77;;;;;;;;;;4991645;28;20211;-66
2023/07/26 02:09:09;;;;;;;4.13;2.10;;;;;;;;;;4989021;28;20204;-66
2023/07/26 02:11:37;;;;;;;2.40;1.90;;;;;;;;;;4978869;28;20216;-66
2023/07/26 02:14:08;;;;;;;3.17;2.20;;;;;;;;;;5002989;28;20215;-67
2023/07/26 02:16:38;;;;;;;2.40;2.20;;;;;;;;;;5003028;28;20260;-66
2023/07/26 02:19:06;;;;;;;2.53;2.30;;;;;;;;;;5002698;28;20204;-65
2023/07/26 02:21:35;;;;;;;2.73;2.33;;;;;;;;;;5000914;28;20282;-65
2023/07/26 02:24:04;;;;;;;2.90;2.53;;;;;;;;;;5002373;28;20294;-65
2023/07/26 02:26:36;;;;;;;3.30;2.40;;;;;;;;;;5000545;28;20201;-66
2023/07/26 02:29:04;;;;;;;5.63;3.00;;;;;;;;;;5000720;28;20227;-66
2023/07/26 02:31:33;;;;;;;3.13;2.83;;;;;;;;;;5005073;28;20200;-66
2023/07/26 02:34:03;;;;;;;3.10;2.90;;;;;;;;;;5005650;28;20209;-66
2023/07/26 02:36:38;;;;;;;5.40;2.83;;;;;;;;;;5010488;28;20213;-66
2023/07/26 02:39:06;;;;;;;4.30;2.97;;;;;;;;;;5000250;28;20200;-66
2023/07/26 02:41:34;;;;;;;3.60;3.30;;;;;;;;;;4983149;28;20228;-65
2023/07/26 02:44:01;;;;;;;4.07;3.43;;;;;;;;;;5000760;28;20200;-66
2023/07/26 02:46:29;;;;;;;3.03;2.70;;;;;;;;;;5000444;28;20229;-66
2023/07/26 02:48:58;;;;;;;3.07;2.87;;;;;;;;;;4999313;28;20205;-66
2023/07/26 02:51:26;;;;;;;4.13;2.90;;;;;;;;;;5007499;28;20216;-66
2023/07/26 02:53:54;;;;;;;4.63;2.83;;;;;;;;;;5006614;28;20209;-66
2023/07/26 02:56:24;;;;;;;2.97;2.60;;;;;;;;;;4985194;28;20270;-66
2023/07/26 02:58:51;;;;;;;5.10;2.90;;;;;;;;;;4982767;28;20205;-66
2023/07/26 03:01:19;;;;;;;3.37;2.77;;;;;;;;;;5006913;28;20200;-66
2023/07/26 03:03:46;;;;;;;5.00;2.80;;;;;;;;;;4999568;28;20212;-66
2023/07/26 03:06:16;;;;;;;4.43;2.97;;;;;;;;;;5001495;28;20300;-66
2023/07/26 03:08:43;;;;;;;4.97;2.60;;;;;;;;;;5003673;28;20209;-66
2023/07/26 03:11:11;;;;;;;2.60;2.40;;;;;;;;;;4982006;28;20215;-66
2023/07/26 03:13:38;;;;;;;4.33;3.10;;;;;;;;;;5000076;28;20209;-67
2023/07/26 03:16:06;;;;;;;3.40;3.03;;;;;;;;;;4999936;28;20262;-66
2023/07/26 03:18:35;;;;;;;4.37;3.00;;;;;;;;;;4999796;28;20202;-67
2023/07/26 03:21:03;;;;;;;4.33;3.37;;;;;;;;;;5000884;28;20209;-67
2023/07/26 03:23:34;;;;;;;4.23;3.03;;;;;;;;;;5002485;28;20200;-66
2023/07/26 03:26:02;;;;;;;3.83;3.00;;;;;;;;;;5005051;28;20235;-66
2023/07/26 03:28:30;;;;;;;6.03;3.00;;;;;;;;;;5002195;28;20201;-66
2023/07/26 03:31:00;;;;;;;3.77;3.10;;;;;;;;;;4999730;28;20201;-66
2023/07/26 03:33:27;;;;;;;3.97;3.03;;;;;;;;;;5000508;28;20299;-66
2023/07/26 03:35:55;;;;;;;3.07;2.50;;;;;;;;;;4984635;28;20311;-66
2023/07/26 03:38:23;;;;;;;4.60;3.27;;;;;;;;;;5001950;28;20207;-66
2023/07/26 03:40:51;;;;;;;4.60;2.97;;;;;;;;;;5002496;28;20205;-66
2023/07/26 03:43:19;;;;;;;4.57;3.20;;;;;;;;;;5000633;28;20206;-66
2023/07/26 03:45:47;;;;;;;4.40;3.37;;;;;;;;;;5004049;28;20241;-66
2023/07/26 03:48:15;;;;;;;3.27;2.97;;;;;;;;;;5001111;28;20200;-67
2023/07/26 03:50:43;;;;;;;5.17;3.77;;;;;;;;;;5000379;28;20236;-66
2023/07/26 03:53:11;;;;;;;3.77;3.10;;;;;;;;;;4997084;28;20217;-66
2023/07/26 03:55:39;;;;;;;6.67;3.70;;;;;;;;;;4998499;28;20223;-66
2023/07/26 03:58:09;;;;;;;4.20;3.80;;;;;;;;;;4999090;28;20204;-66
2023/07/26 04:00:36;;;;;;;6.40;3.60;;;;;;;;;;5000014;28;20221;-66
2023/07/26 04:03:05;;;;;;;3.93;3.37;;;;;;;;;;4997728;28;20252;-66
2023/07/26 04:05:34;;;;;;;11.90;10.03;;;;;;;;;;4997199;28;20196;-66
2023/07/26 04:08:03;;;;;;;4.80;3.77;;;;;;;;;;4995297;28;20260;-66
2023/07/26 04:10:30;;;;;;;6.10;3.17;;;;;;;;;;5000147;28;20205;-66
2023/07/26 04:12:58;;;;;;;4.60;2.90;;;;;;;;;;4995567;28;20240;-66
2023/07/26 04:15:27;;;;;;;5.03;3.10;;;;;;;;;;4979386;28;20225;-67
2023/07/26 04:17:54;;;;;;;6.87;4.00;;;;;;;;;;5000054;28;20204;-67
2023/07/26 04:20:21;;;;;;;4.50;3.53;;;;;;;;;;5002210;28;20232;-66
2023/07/26 04:22:49;;;;;;;5.03;2.97;;;;;;;;;;4998534;28;20287;-66
2023/07/26 04:25:16;;;;;;;3.30;3.00;;;;;;;;;;4998082;28;20208;-66
2023/07/26 04:27:44;;;;;;;3.67;3.37;;;;;;;;;;4997323;28;20228;-66
2023/07/26 04:30:11;;;;;;;3.83;3.23;;;;;;;;;;4999080;28;20287;-67
2023/07/26 04:32:40;;;;;;;5.07;3.00;;;;;;;;;;4997586;28;20217;-66
2023/07/26 04:35:07;;;;;;;4.65;3.10;;;;;;;;;;5002936;28;20224;-67
2023/07/26 04:37:34;;;;;;;4.10;3.30;;;;;;;;;;5005070;28;20200;-66
2023/07/26 04:40:01;;;;;;;3.43;3.13;;;;;;;;;;5002743;28;20201;-66
2023/07/26 04:42:28;;;;;;;4.50;3.00;;;;;;;;;;5002736;28;20220;-66
2023/07/26 04:44:56;;;;;;;4.47;3.47;;;;;;;;;;4998040;28;20291;-66
2023/07/26 04:47:24;;;;;;;4.70;3.23;;;;;;;;;;4996079;28;20229;-67
2023/07/26 04:49:53;;;;;;;4.13;3.27;;;;;;;;;;5000371;28;20300;-66
2023/07/26 04:52:20;;;;;;;3.50;2.60;;;;;;;;;;5001456;28;20207;-66
2023/07/26 04:54:47;;;;;;;5.97;3.53;;;;;;;;;;5000144;28;20208;-66
2023/07/26 04:57:14;;;;;;;4.47;3.10;;;;;;;;;;4999828;28;20201;-66
2023/07/26 04:59:41;;;;;;;3.43;3.13;;;;;;;;;;5004762;28;20222;-66
2023/07/26 05:02:08;;;;;;;6.20;3.23;;;;;;;;;;4996553;28;20312;-66
2023/07/26 05:04:36;;;;;;;2.90;2.70;;;;;;;;;;4999553;28;20208;-66
2023/07/26 05:07:05;;;;;;;4.03;3.30;;;;;;;;;;5000028;28;20208;-67
2023/07/26 05:09:32;;;;;;;12.80;8.80;;;;;;;;;;5000759;28;20205;-67
2023/07/26 05:11:59;;;;;;;4.30;3.47;;;;;;;;;;5000268;28;20209;-67
2023/07/26 05:14:26;;;;;;;5.10;3.97;;;;;;;;;;4999332;28;20212;-67
2023/07/26 05:16:53;;;;;;;4.57;3.77;;;;;;;;;;4998287;28;20229;-66
2023/07/26 05:19:21;;;;;;;4.77;3.60;;;;;;;;;;5004956;28;20216;-67
2023/07/26 05:21:48;;;;;;;3.70;3.35;;;;;;;;;;5006287;28;20212;-67
2023/07/26 05:24:17;;;;;;;6.03;3.67;;;;;;;;;;4997028;28;20208;-66
2023/07/26 05:26:44;;;;;;;3.60;3.30;;;;;;;;;;5003694;28;20196;-66
2023/07/26 05:29:11;;;;;;;3.70;3.30;;;;;;;;;;5013093;28;20211;-66
2023/07/26 05:31:39;;;;;;;3.90;3.50;;;;;;;;;;5010231;28;20247;-66
2023/07/26 05:34:06;;;;;;;3.37;3.07;;;;;;;;;;5003478;28;20214;-66
2023/07/26 05:36:34;;;;;;;4.03;2.88;;;;;;;;;;5007291;28;20231;-66
2023/07/26 05:39:01;;;;;;;5.80;3.73;;;;;;;;;;5013062;28;20229;-66
2023/07/26 05:41:31;;;;;;;3.87;3.00;;;;;;;;;;5007571;28;20206;-65
2023/07/26 05:43:59;;;;;;;2.40;2.20;;;;;;;;;;5007194;28;20216;-66
2023/07/26 05:46:26;;;;;;;3.95;3.45;;;;;;;;;;5003053;28;20236;-66
2023/07/26 05:48:54;;;;;;;4.13;3.03;;;;;;;;;;5008490;28;20205;-66
2023/07/26 05:51:22;;;;;;;5.68;3.40;;;;;;;;;;5003843;28;20304;-66
2023/07/26 05:53:49;;;;;;;7.47;2.60;;;;;;;;;;5007443;28;20231;-66
2023/07/26 05:56:16;;;;;;;6.18;2.78;;;;;;;;;;5006659;28;20228;-66
2023/07/26 05:58:45;;;;;;;3.50;3.20;;;;;;;;;;5004339;28;20208;-66
2023/07/26 06:01:12;;;;;;;4.55;3.20;;;;;;;;;;5007316;28;20201;-66
2023/07/26 06:03:42;;;;;;;3.10;2.70;;;;;;;;;;5008225;28;20262;-66
2023/07/26 06:06:10;;;;;;;5.47;2.78;;;;;;;;;;5004779;28;20204;-66
2023/07/26 06:08:37;;;;;;;4.20;2.88;;;;;;;;;;5006096;28;20235;-66
2023/07/26 06:11:04;;;;;;;2.92;2.63;;;;;;;;;;5009630;28;20212;-66
2023/07/26 06:13:32;;;;;;;2.88;2.60;;;;;;;;;;5003011;28;20284;-66
2023/07/26 06:16:01;;;;;;;4.05;2.60;;;;;;;;;;5002714;28;20233;-66
2023/07/26 06:18:28;;;;;;;3.13;2.83;;;;;;;;;;5005982;28;20197;-66
2023/07/26 06:20:55;;;;;;;3.33;2.75;;;;;;;;;;5003437;28;20314;-67
2023/07/26 06:23:23;;;;;;;4.47;3.00;;;;;;;;;;5000985;28;20225;-66
2023/07/26 06:25:51;;;;;;;3.20;2.90;;;;;;;;;;5002552;28;20204;-66
2023/07/26 06:28:18;;;;;;;4.57;3.05;;;;;;;;;;4999405;28;20198;-65
2023/07/26 06:30:46;;;;;;;5.22;2.75;;;;;;;;;;5003534;28;20231;-66
2023/07/26 06:33:15;;;;;;;2.85;2.65;;;;;;;;;;5000756;28;20220;-66
2023/07/26 06:35:42;;;;;;;3.28;3.08;;;;;;;;;;5001154;28;20272;-66
2023/07/26 06:38:10;;;;;;;3.20;2.90;;;;;;;;;;5005578;28;20200;-66
2023/07/26 06:40:37;;;;;;;4.75;2.90;;;;;;;;;;5009721;28;20205;-66
2023/07/26 06:43:05;;;;;;;3.17;2.80;;;;;;;;;;5000135;28;20221;-66
2023/07/26 06:45:32;;;;;;;5.40;3.55;;;;;;;;;;5004253;28;20299;-66
2023/07/26 06:48:00;;;;;;;3.20;3.00;;;;;;;;;;5003997;28;20295;-66
2023/07/26 06:50:29;;;;;;;3.00;2.75;;;;;;;;;;5012309;28;20210;-66
2023/07/26 06:52:56;;;;;;;4.05;3.25;;;;;;;;;;5000852;28;20205;-66
2023/07/26 06:55:23;;;;;;;3.75;3.45;;;;;;;;;;4989930;28;20204;-66
2023/07/26 06:57:50;;;;;;;3.97;3.58;;;;;;;;;;5007692;28;20249;-67
2023/07/26 07:00:18;;;;;;;4.20;3.22;;;;;;;;;;4998079;28;20211;-67
2023/07/26 07:02:46;;;;;;;3.88;3.58;;;;;;;;;;5002825;28;20209;-66
2023/07/26 07:05:14;;;;;;;6.28;3.72;;;;;;;;;;5003533;28;20295;-66
2023/07/26 07:07:43;;;;;;;4.15;3.75;;;;;;;;;;5004070;28;20205;-66
2023/07/26 07:10:10;;;;;;;4.38;3.70;;;;;;;;;;5008923;28;20205;-66
2023/07/26 07:12:37;;;;;;;4.15;3.20;;;;;;;;;;5005016;28;20209;-66
2023/07/26 07:15:05;;;;;;;3.88;3.47;;;;;;;;;;5006343;28;20208;-66
2023/07/26 07:17:33;;;;;;;4.07;3.67;;;;;;;;;;5005518;28;20232;-65
2023/07/26 07:20:00;;;;;;;5.80;3.97;;;;;;;;;;5006868;28;20239;-65
2023/07/26 07:22:27;;;;;;;4.93;3.10;;;;;;;;;;5004166;28;20268;-65
2023/07/26 07:24:56;;;;;;;4.70;4.18;;;;;;;;;;5002980;28;20212;-65
2023/07/26 07:27:23;;;;;;;5.72;3.78;;;;;;;;;;4998293;28;20344;-66
2023/07/26 07:29:51;;;;;;;4.40;4.00;;;;;;;;;;5005047;28;20201;-65
2023/07/26 07:32:19;;;;;;;5.55;3.78;;;;;;;;;;5009390;28;20201;-65
2023/07/26 07:34:46;;;;;;;4.75;3.70;;;;;;;;;;5009334;28;20209;-65
2023/07/26 07:37:14;;;;;;;3.70;3.35;;;;;;;;;;4999297;28;20217;-65
2023/07/26 07:39:41;;;;;;;4.80;3.88;;;;;;;;;;5013872;28;20290;-65
2023/07/26 07:42:10;;;;;;;9.88;3.65;;;;;;;;;;5002228;28;20214;-66
2023/07/26 07:44:38;;;;;;;4.00;3.70;;;;;;;;;;5001023;28;20255;-66
2023/07/26 07:47:05;;;;;;;6.13;3.83;;;;;;;;;;5001834;28;20225;-65
2023/07/26 07:49:33;;;;;;;5.35;3.28;;;;;;;;;;4995709;28;20219;-66
2023/07/26 07:52:00;;;;;;;5.95;3.67;;;;;;;;;;5008026;28;20212;-66
2023/07/26 07:54:28;;;;;;;4.20;3.47;;;;;;;;;;4985832;28;20202;-65
2023/07/26 07:56:55;;;;;;;4.75;3.20;;;;;;;;;;5009132;28;20229;-66
2023/07/26 07:59:24;;;;;;;5.25;3.90;;;;;;;;;;5004813;28;20252;-66
2023/07/26 08:01:51;;;;;;;4.80;3.58;;;;;;;;;;5008740;28;20208;-66
2023/07/26 08:04:18;;;;;;;6.03;3.80;;;;;;;;;;5000901;28;20212;-66
2023/07/26 08:06:46;;;;;;;3.88;3.30;;;;;;;;;;5002251;28;20196;-67
2023/07/26 08:09:13;;;;;;;5.13;3.47;;;;;;;;;;5000581;28;20267;-66
2023/07/26 08:11:40;;;;;;;4.65;3.30;;;;;;;;;;5004175;28;20295;-67
2023/07/26 08:14:08;;;;;;;4.25;3.15;;;;;;;;;;5000142;28;20201;-67
2023/07/26 08:16:37;;;;;;;5.80;3.63;;;;;;;;;;5002625;28;20282;-67
2023/07/26 08:19:05;;;;;;;4.65;3.63;;;;;;;;;;5004697;28;20205;-67
2023/07/26 08:21:32;;;;;;;5.32;3.50;;;;;;;;;;5012380;28;20211;-67
2023/07/26 08:24:00;;;;;;;4.20;2.97;;;;;;;;;;5001617;28;20209;-67
2023/07/26 08:26:27;;;;;;;5.78;3.20;;;;;;;;;;5003163;28;20201;-67
2023/07/26 08:28:55;;;;;;;3.78;3.42;;;;;;;;;;5002355;28;20264;-66
2023/07/26 08:31:22;;;;;;;5.53;3.50;;;;;;;;;;5003787;28;20213;-66
2023/07/26 08:33:51;;;;;;;6.68;3.53;;;;;;;;;;5001846;28;20217;-67
2023/07/26 08:36:18;;;;;;;6.82;2.97;;;;;;;;;;5001711;28;20228;-66
2023/07/26 08:38:46;;;;;;;4.53;3.17;;;;;;;;;;5005422;28;20212;-66
2023/07/26 08:41:14;;;;;;;4.05;3.30;;;;;;;;;;5010982;28;20206;-66
2023/07/26 08:43:41;;;;;;;3.85;3.22;;;;;;;;;;5006076;28;20244;-66
2023/07/26 08:46:10;;;;;;;3.70;3.10;;;;;;;;;;5005739;28;20241;-66
2023/07/26 08:48:38;;;;;;;5.15;3.28;;;;;;;;;;5000251;28;20201;-68
2023/07/26 08:51:07;;;;;;;4.60;2.90;;;;;;;;;;5006186;28;20204;-67
2023/07/26 08:53:35;;;;;;;3.97;3.13;;;;;;;;;;5002310;28;20210;-67
2023/07/26 08:56:03;;;;;;;4.72;3.28;;;;;;;;;;5004724;28;20212;-68
2023/07/26 08:58:31;;;;;;;4.90;3.33;;;;;;;;;;4997408;28;20233;-68
2023/07/26 09:00:59;;;;;;;4.10;3.10;;;;;;;;;;5000820;28;20240;-69
2023/07/26 09:03:27;;;;;;;3.60;3.13;;;;;;;;;;4998392;28;20212;-68
2023/07/26 09:06:05;;;;;;;5.50;3.10;;;;;;;;;;5007657;28;20231;-69
2023/07/26 09:08:33;;;;;;;6.22;3.15;;;;;;;;;;5006534;28;20258;-67
2023/07/26 09:11:03;;;;;;;5.20;3.00;;;;;;;;;;5000237;28;20205;-67
2023/07/26 09:13:30;;;;;;;3.70;3.10;;;;;;;;;;5005316;28;20197;-68
2023/07/26 09:16:00;;;;;;;5.65;3.13;;;;;;;;;;4999971;28;20205;-67
2023/07/26 09:18:28;;;;;;;3.60;3.17;;;;;;;;;;5000689;28;20221;-68
2023/07/26 09:21:02;;;;;;;5.30;3.20;;;;;;;;;;5002735;28;20208;-67
2023/07/26 09:23:29;;;;;;;4.63;2.90;;;;;;;;;;5002141;28;20232;-68
2023/07/26 09:25:58;;;;;;;4.90;3.20;;;;;;;;;;4997577;28;20208;-68
2023/07/26 09:28:25;;;;;;;4.95;3.20;;;;;;;;;;4999817;28;20197;-67
2023/07/26 09:30:53;;;;;;;5.80;3.38;;;;;;;;;;5004541;28;20215;-68
2023/07/26 09:33:23;;;;;;;6.00;3.13;;;;;;;;;;4997060;28;20217;-68
2023/07/26 09:35:53;;;;;;;5.55;3.00;;;;;;;;;;5008478;28;20204;-67
2023/07/26 09:38:24;;;;;;;4.32;3.13;;;;;;;;;;5001254;28;20331;-68
2023/07/26 09:40:51;;;;;;;3.70;3.03;;;;;;;;;;5001898;28;20205;-68
2023/07/26 09:43:32;;;;;;;4.32;3.05;;;;;;;;;;4994063;28;20204;-68
2023/07/26 09:46:00;;;;;;;4.68;2.80;;;;;;;;;;4989844;28;20241;-67
2023/07/26 09:48:28;;;;;;;3.60;2.20;;;;;;;;;;5002075;28;20204;-68
2023/07/26 09:50:56;;;;;;;6.18;2.30;;;;;;;;;;5005171;28;20202;-66
2023/07/26 09:53:24;;;;;;;5.38;2.40;;;;;;;;;;5006500;28;20212;-67
2023/07/26 09:55:52;;;;;;;11.02;2.70;;;;;;;;;;5002521;28;20205;-66
2023/07/26 09:58:19;;;;;;;5.68;2.33;;;;;;;;;;5002910;28;20227;-67
2023/07/26 10:00:49;;;;;;;1.92;1.83;;;;;;;;;;5000419;28;20201;-67
2023/07/26 10:03:19;;;;;;;7.35;2.22;;;;;;;;;;5006129;28;20219;-67
2023/07/26 10:05:48;;;;;;;1.70;1.60;;;;;;;;;;5005489;28;20237;-68
2023/07/26 10:08:16;;;;;;;4.15;1.95;;;;;;;;;;5000504;28;20197;-67
2023/07/26 10:10:44;;;;;;;2.70;2.05;;;;;;;;;;5003825;28;20213;-68
2023/07/26 10:13:11;;;;;;;2.20;1.80;;;;;;;;;;5000649;28;20220;-67
2023/07/26 10:15:45;;;;;;;2.22;1.90;;;;;;;;;;5006765;28;20224;-67
2023/07/26 10:18:15;;;;;;;4.75;2.80;;;;;;;;;;5005155;28;20311;-66
2023/07/26 10:20:43;;;;;;;3.05;2.30;;;;;;;;;;5003187;28;20205;-67
2023/07/26 10:23:12;;;;;;;4.32;3.03;;;;;;;;;;5009621;28;20221;-67
2023/07/26 10:25:40;;;;;;;3.35;2.63;;;;;;;;;;5002959;28;20271;-66
2023/07/26 10:28:09;;;;;;;3.83;2.60;;;;;;;;;;5003888;28;20205;-66
2023/07/26 10:30:36;;;;;;;3.35;2.92;;;;;;;;;;5001116;28;20201;-68
2023/07/26 10:33:03;;;;;;;5.07;2.50;;;;;;;;;;4999763;28;20212;-68
2023/07/26 10:35:32;;;;;;;3.47;2.60;;;;;;;;;;5003778;28;20204;-67
2023/07/26 10:38:01;;;;;;;4.00;2.60;;;;;;;;;;4996523;28;20228;-66
2023/07/26 10:40:33;;;;;;;2.70;2.40;;;;;;;;;;5010167;28;20205;-68
2023/07/26 10:43:17;;;;;;;4.55;2.50;;;;;;;;;;5005238;28;20302;-67
2023/07/26 10:45:44;;;;;;;2.67;2.22;;;;;;;;;;4999317;28;20224;-67
2023/07/26 10:48:16;;;;;;;2.70;2.30;;;;;;;;;;5006559;28;20279;-68
2023/07/26 10:50:45;;;;;;;3.30;2.20;;;;;;;;;;5005636;28;20307;-68
2023/07/26 10:53:32;;;;;;;1.90;1.80;;;;;;;;;;5004643;28;20212;-68
2023/07/26 10:56:09;;;;;;;5.00;2.33;;;;;;;;;;4999453;28;20261;-67
2023/07/26 10:58:36;;;;;;;2.53;1.90;;;;;;;;;;5002797;28;20240;-69
2023/07/26 11:01:04;;;;;;;2.40;2.20;;;;;;;;;;5007633;28;20197;-70
2023/07/26 11:03:31;;;;;;;3.72;2.20;;;;;;;;;;5001128;28;20199;-68
2023/07/26 11:06:00;;;;;;;3.58;2.17;;;;;;;;;;5001627;28;20209;-66
2023/07/26 11:08:41;;;;;;;3.58;2.40;;;;;;;;;;5006939;28;20204;-67
2023/07/26 11:11:09;;;;;;;2.85;2.17;;;;;;;;;;5003068;28;20196;-67
2023/07/26 11:13:36;;;;;;;2.90;2.33;;;;;;;;;;5006624;28;20208;-66
2023/07/26 11:16:03;;;;;;;6.00;2.40;;;;;;;;;;5004006;28;20197;-69
2023/07/26 11:18:31;;;;;;;3.88;2.50;;;;;;;;;;5005344;28;20228;-69
2023/07/26 11:20:59;;;;;;;2.50;2.10;;;;;;;;;;5000653;28;20201;-69
2023/07/26 11:23:27;;;;;;;2.10;1.90;;;;;;;;;;5000497;28;20212;-68
2023/07/26 11:25:55;;;;;;;1.85;1.75;;;;;;;;;;5001400;28;20211;-68
2023/07/26 11:28:23;;;;;;;2.67;2.13;;;;;;;;;;5001564;28;20297;-68
2023/07/26 11:30:51;;;;;;;2.15;1.85;;;;;;;;;;5001738;28;20331;-68
2023/07/26 11:33:27;;;;;;;3.38;1.90;;;;;;;;;;4997594;28;20205;-68
2023/07/26 11:35:55;;;;;;;2.38;1.90;;;;;;;;;;5007423;28;20312;-69
2023/07/26 11:38:25;;;;;;;2.92;1.90;;;;;;;;;;5003120;28;20275;-68
2023/07/26 11:40:54;;;;;;;3.65;1.90;;;;;;;;;;5003697;28;20259;-68
2023/07/26 11:43:22;;;;;;;1.90;1.80;;;;;;;;;;4999887;28;20212;-69
2023/07/26 11:45:49;;;;;;;2.90;1.88;;;;;;;;;;4997691;28;20237;-69
2023/07/26 11:48:16;;;;;;;1.77;1.67;;;;;;;;;;5003131;28;20205;-68
2023/07/26 11:50:44;;;;;;;2.20;2.00;;;;;;;;;;5003180;28;20201;-70
2023/07/26 11:53:15;;;;;;;2.20;1.70;;;;;;;;;;5001179;28;20226;-70
2023/07/26 11:55:45;;;;;;;4.20;2.00;;;;;;;;;;4997486;28;20205;-68
2023/07/26 11:58:14;;;;;;;2.28;1.98;;;;;;;;;;5001930;28;20255;-70
2023/07/26 12:00:43;;;;;;;2.38;2.10;;;;;;;;;;4998817;28;20213;-69
2023/07/26 12:03:10;;;;;;;2.78;2.10;;;;;;;;;;4999264;28;20263;-68
2023/07/26 12:05:42;;;;;;;2.10;1.70;;;;;;;;;;5000705;28;20217;-71
2023/07/26 12:08:10;;;;;;;2.60;1.70;;;;;;;;;;5003138;28;20290;-70
2023/07/26 12:10:38;;;;;;;2.65;1.77;;;;;;;;;;4997701;28;20216;-70
2023/07/26 12:13:08;;;;;;;3.05;2.00;;;;;;;;;;4995596;28;20205;-69
2023/07/26 12:15:51;;;;;;;3.67;1.90;;;;;;;;;;4994092;28;20205;-70
2023/07/26 12:18:18;;;;;;;1.75;1.58;;;;;;;;;;4999976;28;20217;-70
2023/07/26 12:20:56;;;;;;;1.52;1.42;;;;;;;;;;5003293;28;20263;-70
2023/07/26 12:23:23;;;;;;;2.42;1.90;;;;;;;;;;5000164;28;20216;-70
2023/07/26 12:25:53;;;;;;;3.38;1.90;;;;;;;;;;5001446;28;20240;-71
2023/07/26 12:28:21;;;;;;;2.72;1.73;;;;;;;;;;4997948;28;20212;-70
2023/07/26 12:30:55;;;;;;;1.65;1.52;;;;;;;;;;5000744;28;20240;-70
2023/07/26 12:33:23;;;;;;;3.20;1.95;;;;;;;;;;5002808;28;20208;-70
2023/07/26 12:35:53;;;;;;;3.50;1.80;;;;;;;;;;5000499;28;20220;-71
2023/07/26 12:38:21;;;;;;;3.05;2.08;;;;;;;;;;5009858;28;20236;-70
2023/07/26 12:40:49;;;;;;;2.45;1.83;;;;;;;;;;4999589;28;20298;-70
2023/07/26 12:43:24;;;;;;;1.85;1.48;;;;;;;;;;5004169;28;20205;-71
2023/07/26 12:45:51;;;;;;;1.70;1.58;;;;;;;;;;4996879;28;20321;-71
2023/07/26 12:48:19;;;;;;;2.22;1.73;;;;;;;;;;5003367;28;20213;-70
2023/07/26 12:50:46;;;;;;;2.22;1.50;;;;;;;;;;5003859;28;20303;-71
2023/07/26 12:53:14;;;;;;;2.10;1.58;;;;;;;;;;5003470;28;20224;-72
2023/07/26 12:55:41;;;;;;;1.70;1.60;;;;;;;;;;5001533;28;20218;-71
2023/07/26 12:58:09;;;;;;;1.33;1.30;;;;;;;;;;5006811;28;20229;-71
2023/07/26 13:00:37;;;;;;;3.17;1.50;;;;;;;;;;4998915;28;20206;-71
2023/07/26 13:03:04;;;;;;;1.70;1.60;;;;;;;;;;5003040;28;20215;-71
2023/07/26 13:05:31;;;;;;;1.65;1.55;;;;;;;;;;4998425;28;20208;-71
2023/07/26 13:07:58;;;;;;;2.38;1.83;;;;;;;;;;5000475;28;20261;-71
2023/07/26 13:10:26;;;;;;;1.50;1.40;;;;;;;;;;5003881;28;20300;-69
2023/07/26 13:12:53;;;;;;;2.15;1.50;;;;;;;;;;5002641;28;20220;-71
2023/07/26 13:15:21;;;;;;;1.70;1.60;;;;;;;;;;5000195;28;20212;-70
2023/07/26 13:17:50;;;;;;;2.08;1.88;;;;;;;;;;5004714;28;20211;-70
2023/07/26 13:20:18;;;;;;;3.90;1.55;;;;;;;;;;5002979;28;20236;-71
2023/07/26 13:22:45;;;;;;;1.55;1.45;;;;;;;;;;5002952;28;20209;-71
2023/07/26 13:25:12;;;;;;;1.90;1.55;;;;;;;;;;5004969;28;20204;-70
2023/07/26 13:27:39;;;;;;;1.88;1.67;;;;;;;;;;5005650;28;20208;-71
2023/07/26 13:30:07;;;;;;;2.50;1.70;;;;;;;;;;5001620;28;20201;-72
2023/07/26 13:32:35;;;;;;;1.88;1.77;;;;;;;;;;4998665;28;20213;-71
2023/07/26 13:35:03;;;;;;;2.28;1.63;;;;;;;;;;4996920;28;20232;-71
2023/07/26 13:37:30;;;;;;;2.08;1.75;;;;;;;;;;4999212;28;20213;-72
2023/07/26 13:39:58;;;;;;;2.55;1.50;;;;;;;;;;5002061;28;20233;-73
2023/07/26 13:42:25;;;;;;;1.88;1.40;;;;;;;;;;5003584;28;20201;-72
2023/07/26 13:44:52;;;;;;;2.10;1.67;;;;;;;;;;4999588;28;20201;-71
2023/07/26 13:47:19;;;;;;;3.33;1.73;;;;;;;;;;4999556;28;20243;-71
2023/07/26 13:49:46;;;;;;;2.85;1.52;;;;;;;;;;5005985;28;20200;-71
2023/07/26 13:52:15;;;;;;;2.40;1.80;;;;;;;;;;5007879;28;20201;-72
2023/07/26 13:54:42;;;;;;;2.40;1.60;;;;;;;;;;5003712;28;20241;-72
2023/07/26 13:57:10;;;;;;;1.98;1.50;;;;;;;;;;5003233;28;20204;-71
2023/07/26 13:59:38;;;;;;;1.85;1.67;;;;;;;;;;5004099;28;20232;-72
2023/07/26 14:02:05;;;;;;;2.13;1.60;;;;;;;;;;5003334;28;20211;-72
2023/07/26 14:04:32;;;;;;;2.75;1.75;;;;;;;;;;5005022;28;20209;-72
2023/07/26 14:06:59;;;;;;;1.65;1.55;;;;;;;;;;5005939;28;20217;-72
2023/07/26 14:09:28;;;;;;;2.38;1.90;;;;;;;;;;4999020;28;20197;-71
2023/07/26 14:11:55;;;;;;;2.95;1.77;;;;;;;;;;5004552;28;20209;-72
2023/07/26 14:14:23;;;;;;;2.28;1.70;;;;;;;;;;5005104;28;20208;-72
2023/07/26 14:16:50;;;;;;;1.85;1.75;;;;;;;;;;4999199;28;20264;-70
2023/07/26 14:19:18;;;;;;;2.35;1.70;;;;;;;;;;5002905;28;20226;-72
2023/07/26 14:21:46;;;;;;;3.28;1.90;;;;;;;;;;4998426;28;20231;-71
2023/07/26 14:24:13;;;;;;;1.95;1.67;;;;;;;;;;5001687;28;20212;-72
2023/07/26 14:26:41;;;;;;;5.95;1.98;;;;;;;;;;5000867;28;20205;-72
2023/07/26 14:29:09;;;;;;;1.63;1.40;;;;;;;;;;5001640;28;20202;-71
2023/07/26 14:31:36;;;;;;;1.92;1.70;;;;;;;;;;5004337;28;20206;-71
2023/07/26 14:34:04;;;;;;;2.60;1.65;;;;;;;;;;5003617;28;20205;-69
2023/07/26 14:36:31;;;;;;;4.32;1.88;;;;;;;;;;4998808;28;20209;-71
2023/07/26 14:38:58;;;;;;;2.40;1.60;;;;;;;;;;5005185;28;20237;-71
2023/07/26 14:41:25;;;;;;;2.75;1.50;;;;;;;;;;4996783;28;20205;-72
2023/07/26 14:43:54;;;;;;;4.07;1.60;;;;;;;;;;5003408;28;20430;-72
2023/07/26 14:46:21;;;;;;;3.17;1.58;;;;;;;;;;4973120;28;1101529;-72
2023/07/26 14:48:48;;;;;;;2.03;1.67;;;;;;;;;;5003928;28;20296;-69
2023/07/26 14:51:15;;;;;;;5.45;1.73;;;;;;;;;;5003495;28;20212;-73